Terminal Aerodrome Forecast
Issued by NWS Cleveland, OH

Home | Current Version | Previous Version | Graphics & Text | Print | Product List | Glossary On
Versions: 1 2 3 4 5 6 7 8 9 10 11 12 13 14 15 16 17 18 19 20 21 22
000
FTUS41 KCLE 100525
TAFERI
TAF
KERI 100525Z 1006/1106 28010KT 3SM -SHSN OVC025
      TEMPO 1006/1010 1SM -SHSN OVC015
     FM101000 25010G20KT 3SM -SHSN OVC025
      TEMPO 1010/1014 1SM -SHSN OVC015
     FM101900 25010G15KT P6SM BKN060
     FM102300 24008KT P6SM BKN060=

USA.gov is the U.S. government's official web portal to all federal, state and local government web resources and services.